sensor_id;sensor_type;location;lat;lon;timestamp;P1;durP1;ratioP1;P2;durP2;ratioP2
41683;SDS011;27369;52.030;4.586;2023-05-10T00:00:22;0.00;;;0.00;;
41683;SDS011;27369;52.030;4.586;2023-05-10T00:02:48;0.05;;;0.05;;
41683;SDS011;27369;52.030;4.586;2023-05-10T00:05:14;0.10;;;0.10;;
41683;SDS011;27369;52.030;4.586;2023-05-10T00:07:39;0.00;;;0.00;;
41683;SDS011;27369;52.030;4.586;2023-05-10T00:10:05;0.20;;;0.15;;
41683;SDS011;27369;52.030;4.586;2023-05-10T00:12:31;0.00;;;0.00;;
41683;SDS011;27369;52.030;4.586;2023-05-10T00:14:56;0.00;;;0.00;;
41683;SDS011;27369;52.030;4.586;2023-05-10T00:17:22;0.00;;;0.00;;
41683;SDS011;27369;52.030;4.586;2023-05-10T00:19:47;0.00;;;0.00;;
41683;SDS011;27369;52.030;4.586;2023-05-10T00:22:13;0.00;;;0.00;;
41683;SDS011;27369;52.030;4.586;2023-05-10T00:24:38;0.22;;;0.22;;
41683;SDS011;27369;52.030;4.586;2023-05-10T00:27:04;0.22;;;0.22;;
41683;SDS011;27369;52.030;4.586;2023-05-10T00:29:29;0.22;;;0.22;;
41683;SDS011;27369;52.030;4.586;2023-05-10T00:31:55;0.00;;;0.00;;
41683;SDS011;27369;52.030;4.586;2023-05-10T00:34:21;0.00;;;0.00;;
41683;SDS011;27369;52.030;4.586;2023-05-10T00:36:46;0.13;;;0.13;;
41683;SDS011;27369;52.030;4.586;2023-05-10T00:39:12;2.20;;;1.55;;
41683;SDS011;27369;52.030;4.586;2023-05-10T00:41:37;0.28;;;0.28;;
41683;SDS011;27369;52.030;4.586;2023-05-10T00:44:03;0.00;;;0.00;;
41683;SDS011;27369;52.030;4.586;2023-05-10T00:46:29;0.03;;;0.03;;
41683;SDS011;27369;52.030;4.586;2023-05-10T00:48:55;0.00;;;0.00;;
41683;SDS011;27369;52.030;4.586;2023-05-10T00:51:20;0.00;;;0.00;;
41683;SDS011;27369;52.030;4.586;2023-05-10T00:53:46;0.10;;;0.10;;
41683;SDS011;27369;52.030;4.586;2023-05-10T00:56:12;0.00;;;0.00;;
41683;SDS011;27369;52.030;4.586;2023-05-10T00:58:38;0.00;;;0.00;;
41683;SDS011;27369;52.030;4.586;2023-05-10T01:01:04;0.88;;;0.85;;
41683;SDS011;27369;52.030;4.586;2023-05-10T01:03:31;0.30;;;0.30;;
41683;SDS011;27369;52.030;4.586;2023-05-10T01:08:22;0.10;;;0.10;;
41683;SDS011;27369;52.030;4.586;2023-05-10T01:10:48;0.00;;;0.00;;
41683;SDS011;27369;52.030;4.586;2023-05-10T01:13:16;2.83;;;1.70;;
41683;SDS011;27369;52.030;4.586;2023-05-10T01:15:48;0.85;;;0.85;;
41683;SDS011;27369;52.030;4.586;2023-05-10T01:18:14;0.98;;;0.10;;
41683;SDS011;27369;52.030;4.586;2023-05-10T01:20:44;0.43;;;0.43;;
41683;SDS011;27369;52.030;4.586;2023-05-10T01:23:28;0.10;;;0.10;;
41683;SDS011;27369;52.030;4.586;2023-05-10T01:28:58;3.90;;;3.58;;
41683;SDS011;27369;52.030;4.586;2023-05-10T01:34:23;3.72;;;2.88;;
41683;SDS011;27369;52.030;4.586;2023-05-10T01:39:36;0.80;;;0.80;;
41683;SDS011;27369;52.030;4.586;2023-05-10T01:42:11;1.20;;;1.05;;
41683;SDS011;27369;52.030;4.586;2023-05-10T01:47:37;0.00;;;0.00;;
41683;SDS011;27369;52.030;4.586;2023-05-10T01:50:07;1.80;;;0.80;;
41683;SDS011;27369;52.030;4.586;2023-05-10T01:52:37;0.63;;;0.28;;
41683;SDS011;27369;52.030;4.586;2023-05-10T01:55:06;0.95;;;0.77;;
41683;SDS011;27369;52.030;4.586;2023-05-10T01:57:36;3.40;;;1.20;;
41683;SDS011;27369;52.030;4.586;2023-05-10T02:00:06;4.97;;;3.00;;
41683;SDS011;27369;52.030;4.586;2023-05-10T02:02:35;0.32;;;0.32;;
41683;SDS011;27369;52.030;4.586;2023-05-10T02:05:03;1.10;;;1.10;;
41683;SDS011;27369;52.030;4.586;2023-05-10T02:07:31;0.50;;;0.30;;
41683;SDS011;27369;52.030;4.586;2023-05-10T02:10:00;0.35;;;0.35;;
41683;SDS011;27369;52.030;4.586;2023-05-10T02:12:29;0.00;;;0.00;;
41683;SDS011;27369;52.030;4.586;2023-05-10T02:15:00;2.05;;;0.95;;
41683;SDS011;27369;52.030;4.586;2023-05-10T02:17:30;3.25;;;1.70;;
41683;SDS011;27369;52.030;4.586;2023-05-10T02:19:57;0.90;;;0.90;;
41683;SDS011;27369;52.030;4.586;2023-05-10T02:22:24;1.45;;;0.85;;
41683;SDS011;27369;52.030;4.586;2023-05-10T02:24:52;1.52;;;1.35;;
41683;SDS011;27369;52.030;4.586;2023-05-10T02:27:23;2.42;;;1.50;;
41683;SDS011;27369;52.030;4.586;2023-05-10T02:29:50;0.50;;;0.50;;
41683;SDS011;27369;52.030;4.586;2023-05-10T02:32:17;1.95;;;1.63;;
41683;SDS011;27369;52.030;4.586;2023-05-10T02:37:11;1.17;;;1.17;;
41683;SDS011;27369;52.030;4.586;2023-05-10T02:39:38;0.00;;;0.00;;
41683;SDS011;27369;52.030;4.586;2023-05-10T02:42:08;1.13;;;1.00;;
41683;SDS011;27369;52.030;4.586;2023-05-10T02:44:40;2.25;;;1.00;;
41683;SDS011;27369;52.030;4.586;2023-05-10T02:47:06;0.63;;;0.40;;
41683;SDS011;27369;52.030;4.586;2023-05-10T02:49:32;0.80;;;0.80;;
41683;SDS011;27369;52.030;4.586;2023-05-10T02:51:58;1.77;;;1.67;;
41683;SDS011;27369;52.030;4.586;2023-05-10T02:54:29;8.40;;;5.40;;
41683;SDS011;27369;52.030;4.586;2023-05-10T02:56:57;4.82;;;1.80;;
41683;SDS011;27369;52.030;4.586;2023-05-10T02:59:25;7.68;;;3.97;;
41683;SDS011;27369;52.030;4.586;2023-05-10T03:01:51;6.82;;;3.88;;
41683;SDS011;27369;52.030;4.586;2023-05-10T03:04:17;2.40;;;1.83;;
41683;SDS011;27369;52.030;4.586;2023-05-10T03:06:42;5.70;;;2.38;;
41683;SDS011;27369;52.030;4.586;2023-05-10T03:17:23;5.28;;;2.63;;
41683;SDS011;27369;52.030;4.586;2023-05-10T03:19:57;3.22;;;2.95;;
41683;SDS011;27369;52.030;4.586;2023-05-10T03:22:30;4.57;;;3.55;;
41683;SDS011;27369;52.030;4.586;2023-05-10T03:24:57;3.22;;;2.92;;
41683;SDS011;27369;52.030;4.586;2023-05-10T03:27:27;2.22;;;1.95;;
41683;SDS011;27369;52.030;4.586;2023-05-10T03:29:54;3.03;;;2.72;;
41683;SDS011;27369;52.030;4.586;2023-05-10T03:32:21;4.30;;;3.90;;
41683;SDS011;27369;52.030;4.586;2023-05-10T03:34:47;1.35;;;1.20;;
41683;SDS011;27369;52.030;4.586;2023-05-10T03:37:13;1.10;;;0.95;;
41683;SDS011;27369;52.030;4.586;2023-05-10T03:39:38;0.57;;;0.25;;
41683;SDS011;27369;52.030;4.586;2023-05-10T03:42:03;3.53;;;3.08;;
41683;SDS011;27369;52.030;4.586;2023-05-10T03:44:29;5.47;;;4.95;;
41683;SDS011;27369;52.030;4.586;2023-05-10T03:46:54;9.77;;;5.90;;
41683;SDS011;27369;52.030;4.586;2023-05-10T03:49:21;4.05;;;3.67;;
41683;SDS011;27369;52.030;4.586;2023-05-10T03:51:47;2.85;;;2.65;;
41683;SDS011;27369;52.030;4.586;2023-05-10T03:54:13;1.38;;;1.10;;
41683;SDS011;27369;52.030;4.586;2023-05-10T03:56:38;2.00;;;1.85;;
41683;SDS011;27369;52.030;4.586;2023-05-10T03:59:03;1.35;;;1.27;;
41683;SDS011;27369;52.030;4.586;2023-05-10T04:01:32;1.65;;;1.45;;
41683;SDS011;27369;52.030;4.586;2023-05-10T04:04:00;1.50;;;1.45;;
41683;SDS011;27369;52.030;4.586;2023-05-10T04:06:25;1.05;;;1.05;;
41683;SDS011;27369;52.030;4.586;2023-05-10T04:08:51;5.88;;;1.80;;
41683;SDS011;27369;52.030;4.586;2023-05-10T04:11:16;3.17;;;2.88;;
41683;SDS011;27369;52.030;4.586;2023-05-10T04:13:41;3.53;;;2.92;;
41683;SDS011;27369;52.030;4.586;2023-05-10T04:16:08;5.20;;;4.78;;
41683;SDS011;27369;52.030;4.586;2023-05-10T04:18:33;2.25;;;2.05;;
41683;SDS011;27369;52.030;4.586;2023-05-10T04:20:59;8.55;;;6.18;;
41683;SDS011;27369;52.030;4.586;2023-05-10T04:23:25;5.72;;;4.78;;
41683;SDS011;27369;52.030;4.586;2023-05-10T04:25:50;6.55;;;5.22;;
41683;SDS011;27369;52.030;4.586;2023-05-10T04:28:15;2.30;;;1.88;;
41683;SDS011;27369;52.030;4.586;2023-05-10T04:30:41;0.25;;;0.25;;
41683;SDS011;27369;52.030;4.586;2023-05-10T04:33:06;3.97;;;2.97;;
41683;SDS011;27369;52.030;4.586;2023-05-10T04:35:31;3.30;;;2.80;;
41683;SDS011;27369;52.030;4.586;2023-05-10T04:37:57;5.25;;;3.63;;
41683;SDS011;27369;52.030;4.586;2023-05-10T04:40:22;3.25;;;2.95;;
41683;SDS011;27369;52.030;4.586;2023-05-10T04:42:48;0.52;;;0.52;;
41683;SDS011;27369;52.030;4.586;2023-05-10T04:45:13;0.82;;;0.82;;
41683;SDS011;27369;52.030;4.586;2023-05-10T04:47:41;3.47;;;3.17;;
41683;SDS011;27369;52.030;4.586;2023-05-10T04:50:07;2.20;;;1.88;;
41683;SDS011;27369;52.030;4.586;2023-05-10T04:52:33;3.53;;;3.23;;
41683;SDS011;27369;52.030;4.586;2023-05-10T04:54:58;3.85;;;3.40;;
41683;SDS011;27369;52.030;4.586;2023-05-10T04:57:24;4.38;;;3.95;;
41683;SDS011;27369;52.030;4.586;2023-05-10T04:59:49;6.95;;;4.22;;
41683;SDS011;27369;52.030;4.586;2023-05-10T05:02:14;1.08;;;0.88;;
41683;SDS011;27369;52.030;4.586;2023-05-10T05:04:40;0.57;;;0.57;;
41683;SDS011;27369;52.030;4.586;2023-05-10T05:07:06;2.63;;;2.35;;
41683;SDS011;27369;52.030;4.586;2023-05-10T05:09:31;2.85;;;2.38;;
41683;SDS011;27369;52.030;4.586;2023-05-10T05:11:59;2.90;;;2.58;;
41683;SDS011;27369;52.030;4.586;2023-05-10T05:14:25;2.38;;;1.95;;
41683;SDS011;27369;52.030;4.586;2023-05-10T05:16:53;3.30;;;1.27;;
41683;SDS011;27369;52.030;4.586;2023-05-10T05:19:19;4.93;;;3.78;;
41683;SDS011;27369;52.030;4.586;2023-05-10T05:21:44;2.33;;;2.13;;
41683;SDS011;27369;52.030;4.586;2023-05-10T05:24:10;0.20;;;0.20;;
41683;SDS011;27369;52.030;4.586;2023-05-10T05:26:37;3.50;;;2.97;;
41683;SDS011;27369;52.030;4.586;2023-05-10T05:29:03;0.75;;;0.75;;
41683;SDS011;27369;52.030;4.586;2023-05-10T05:31:28;1.25;;;1.13;;
41683;SDS011;27369;52.030;4.586;2023-05-10T05:33:54;1.08;;;0.77;;
41683;SDS011;27369;52.030;4.586;2023-05-10T05:36:20;3.40;;;1.33;;
41683;SDS011;27369;52.030;4.586;2023-05-10T05:38:45;3.50;;;1.92;;
41683;SDS011;27369;52.030;4.586;2023-05-10T05:41:11;2.55;;;2.33;;
41683;SDS011;27369;52.030;4.586;2023-05-10T05:43:36;1.15;;;0.70;;
41683;SDS011;27369;52.030;4.586;2023-05-10T05:46:02;1.67;;;1.25;;
41683;SDS011;27369;52.030;4.586;2023-05-10T05:48:28;1.08;;;0.70;;
41683;SDS011;27369;52.030;4.586;2023-05-10T05:50:55;1.90;;;0.88;;
41683;SDS011;27369;52.030;4.586;2023-05-10T05:53:21;1.08;;;0.90;;
41683;SDS011;27369;52.030;4.586;2023-05-10T05:58:22;1.85;;;1.05;;
41683;SDS011;27369;52.030;4.586;2023-05-10T06:03:14;2.13;;;1.77;;
41683;SDS011;27369;52.030;4.586;2023-05-10T06:05:40;1.95;;;0.85;;
41683;SDS011;27369;52.030;4.586;2023-05-10T06:08:05;1.70;;;1.48;;
41683;SDS011;27369;52.030;4.586;2023-05-10T06:10:31;1.17;;;0.85;;
41683;SDS011;27369;52.030;4.586;2023-05-10T06:12:56;1.05;;;1.00;;
41683;SDS011;27369;52.030;4.586;2023-05-10T06:15:22;0.95;;;0.70;;
41683;SDS011;27369;52.030;4.586;2023-05-10T06:17:47;0.25;;;0.25;;
41683;SDS011;27369;52.030;4.586;2023-05-10T06:20:14;1.40;;;1.17;;
41683;SDS011;27369;52.030;4.586;2023-05-10T06:22:40;1.25;;;1.02;;
41683;SDS011;27369;52.030;4.586;2023-05-10T06:25:06;0.75;;;0.75;;
41683;SDS011;27369;52.030;4.586;2023-05-10T06:27:32;1.08;;;0.88;;
41683;SDS011;27369;52.030;4.586;2023-05-10T06:29:57;1.55;;;1.45;;
41683;SDS011;27369;52.030;4.586;2023-05-10T06:32:23;0.88;;;0.10;;
41683;SDS011;27369;52.030;4.586;2023-05-10T06:34:48;0.10;;;0.10;;
41683;SDS011;27369;52.030;4.586;2023-05-10T06:37:13;0.95;;;0.70;;
41683;SDS011;27369;52.030;4.586;2023-05-10T06:39:39;0.52;;;0.52;;
41683;SDS011;27369;52.030;4.586;2023-05-10T06:42:04;0.00;;;0.00;;
41683;SDS011;27369;52.030;4.586;2023-05-10T06:44:30;0.13;;;0.13;;
41683;SDS011;27369;52.030;4.586;2023-05-10T06:46:55;1.38;;;1.13;;
41683;SDS011;27369;52.030;4.586;2023-05-10T06:49:21;0.82;;;0.82;;
41683;SDS011;27369;52.030;4.586;2023-05-10T06:51:47;0.70;;;0.70;;
41683;SDS011;27369;52.030;4.586;2023-05-10T06:54:14;0.80;;;0.73;;
41683;SDS011;27369;52.030;4.586;2023-05-10T06:56:39;1.52;;;1.05;;
41683;SDS011;27369;52.030;4.586;2023-05-10T06:59:04;0.30;;;0.30;;
41683;SDS011;27369;52.030;4.586;2023-05-10T07:01:30;0.13;;;0.13;;
41683;SDS011;27369;52.030;4.586;2023-05-10T07:03:55;0.82;;;0.13;;
41683;SDS011;27369;52.030;4.586;2023-05-10T07:06:21;0.57;;;0.57;;
41683;SDS011;27369;52.030;4.586;2023-05-10T07:08:47;0.38;;;0.30;;
41683;SDS011;27369;52.030;4.586;2023-05-10T07:11:12;0.30;;;0.30;;
41683;SDS011;27369;52.030;4.586;2023-05-10T07:13:37;0.47;;;0.47;;
41683;SDS011;27369;52.030;4.586;2023-05-10T07:16:06;0.00;;;0.00;;
41683;SDS011;27369;52.030;4.586;2023-05-10T07:18:32;0.98;;;0.60;;
41683;SDS011;27369;52.030;4.586;2023-05-10T07:20:58;0.35;;;0.35;;
41683;SDS011;27369;52.030;4.586;2023-05-10T07:23:23;0.95;;;0.93;;
41683;SDS011;27369;52.030;4.586;2023-05-10T07:25:49;0.47;;;0.47;;
41683;SDS011;27369;52.030;4.586;2023-05-10T07:28:17;1.13;;;0.63;;
41683;SDS011;27369;52.030;4.586;2023-05-10T07:30:43;1.17;;;0.70;;
41683;SDS011;27369;52.030;4.586;2023-05-10T07:33:09;2.60;;;1.83;;
41683;SDS011;27369;52.030;4.586;2023-05-10T07:35:36;0.10;;;0.10;;
41683;SDS011;27369;52.030;4.586;2023-05-10T07:38:02;0.90;;;0.65;;
41683;SDS011;27369;52.030;4.586;2023-05-10T07:40:27;0.10;;;0.10;;
41683;SDS011;27369;52.030;4.586;2023-05-10T07:42:53;0.45;;;0.38;;
41683;SDS011;27369;52.030;4.586;2023-05-10T07:45:18;1.35;;;1.25;;
41683;SDS011;27369;52.030;4.586;2023-05-10T07:47:43;0.40;;;0.40;;
41683;SDS011;27369;52.030;4.586;2023-05-10T07:50:09;3.03;;;1.38;;
41683;SDS011;27369;52.030;4.586;2023-05-10T07:52:34;0.57;;;0.57;;
41683;SDS011;27369;52.030;4.586;2023-05-10T07:55:00;0.25;;;0.25;;
41683;SDS011;27369;52.030;4.586;2023-05-10T07:57:25;0.55;;;0.55;;
41683;SDS011;27369;52.030;4.586;2023-05-10T07:59:51;0.20;;;0.20;;
41683;SDS011;27369;52.030;4.586;2023-05-10T08:02:16;0.52;;;0.00;;
41683;SDS011;27369;52.030;4.586;2023-05-10T08:04:41;0.00;;;0.00;;
41683;SDS011;27369;52.030;4.586;2023-05-10T08:07:07;0.20;;;0.20;;
41683;SDS011;27369;52.030;4.586;2023-05-10T08:09:32;0.40;;;0.40;;
41683;SDS011;27369;52.030;4.586;2023-05-10T08:11:58;0.75;;;0.55;;
41683;SDS011;27369;52.030;4.586;2023-05-10T08:14:24;0.10;;;0.10;;
41683;SDS011;27369;52.030;4.586;2023-05-10T08:16:50;1.02;;;0.50;;
41683;SDS011;27369;52.030;4.586;2023-05-10T08:19:16;1.65;;;0.77;;
41683;SDS011;27369;52.030;4.586;2023-05-10T08:21:44;0.75;;;0.30;;
41683;SDS011;27369;52.030;4.586;2023-05-10T08:24:10;0.98;;;0.88;;
41683;SDS011;27369;52.030;4.586;2023-05-10T08:26:35;0.50;;;0.50;;
41683;SDS011;27369;52.030;4.586;2023-05-10T08:29:00;1.02;;;1.02;;
41683;SDS011;27369;52.030;4.586;2023-05-10T08:31:26;0.65;;;0.52;;
41683;SDS011;27369;52.030;4.586;2023-05-10T08:33:51;0.38;;;0.38;;
41683;SDS011;27369;52.030;4.586;2023-05-10T08:36:17;0.70;;;0.63;;
41683;SDS011;27369;52.030;4.586;2023-05-10T08:38:46;0.65;;;0.65;;
41683;SDS011;27369;52.030;4.586;2023-05-10T08:41:12;0.52;;;0.52;;
41683;SDS011;27369;52.030;4.586;2023-05-10T08:43:38;1.33;;;1.23;;
41683;SDS011;27369;52.030;4.586;2023-05-10T08:46:04;1.70;;;0.90;;
41683;SDS011;27369;52.030;4.586;2023-05-10T08:50:58;0.47;;;0.47;;
41683;SDS011;27369;52.030;4.586;2023-05-10T08:53:25;0.52;;;0.52;;
41683;SDS011;27369;52.030;4.586;2023-05-10T08:55:52;0.03;;;0.03;;
41683;SDS011;27369;52.030;4.586;2023-05-10T08:58:18;0.98;;;0.35;;
41683;SDS011;27369;52.030;4.586;2023-05-10T09:00:44;0.00;;;0.00;;
41683;SDS011;27369;52.030;4.586;2023-05-10T09:05:36;0.00;;;0.00;;
41683;SDS011;27369;52.030;4.586;2023-05-10T09:08:01;0.20;;;0.10;;
41683;SDS011;27369;52.030;4.586;2023-05-10T09:10:27;1.25;;;0.43;;
41683;SDS011;27369;52.030;4.586;2023-05-10T09:12:55;0.50;;;0.50;;
41683;SDS011;27369;52.030;4.586;2023-05-10T09:15:21;1.25;;;1.15;;
41683;SDS011;27369;52.030;4.586;2023-05-10T09:17:47;0.57;;;0.43;;
41683;SDS011;27369;52.030;4.586;2023-05-10T09:20:14;0.95;;;0.63;;
41683;SDS011;27369;52.030;4.586;2023-05-10T09:22:42;0.70;;;0.45;;
41683;SDS011;27369;52.030;4.586;2023-05-10T09:25:08;0.65;;;0.20;;
41683;SDS011;27369;52.030;4.586;2023-05-10T09:27:41;0.00;;;0.00;;
41683;SDS011;27369;52.030;4.586;2023-05-10T09:30:10;0.45;;;0.40;;
41683;SDS011;27369;52.030;4.586;2023-05-10T09:32:43;0.63;;;0.60;;
41683;SDS011;27369;52.030;4.586;2023-05-10T09:35:19;0.10;;;0.10;;
41683;SDS011;27369;52.030;4.586;2023-05-10T09:37:47;0.15;;;0.15;;
41683;SDS011;27369;52.030;4.586;2023-05-10T09:40:15;0.28;;;0.22;;
41683;SDS011;27369;52.030;4.586;2023-05-10T09:42:42;0.15;;;0.15;;
41683;SDS011;27369;52.030;4.586;2023-05-10T09:45:26;1.30;;;0.40;;
41683;SDS011;27369;52.030;4.586;2023-05-10T09:47:55;0.00;;;0.00;;
41683;SDS011;27369;52.030;4.586;2023-05-10T09:50:21;0.35;;;0.35;;
41683;SDS011;27369;52.030;4.586;2023-05-10T09:52:48;0.20;;;0.10;;
41683;SDS011;27369;52.030;4.586;2023-05-10T09:55:16;1.00;;;0.55;;
41683;SDS011;27369;52.030;4.586;2023-05-10T09:57:42;0.73;;;0.60;;
41683;SDS011;27369;52.030;4.586;2023-05-10T10:00:08;1.55;;;1.45;;
41683;SDS011;27369;52.030;4.586;2023-05-10T10:02:37;0.08;;;0.08;;
41683;SDS011;27369;52.030;4.586;2023-05-10T10:05:04;11.40;;;1.27;;
41683;SDS011;27369;52.030;4.586;2023-05-10T10:07:31;0.75;;;0.75;;
41683;SDS011;27369;52.030;4.586;2023-05-10T10:09:58;0.50;;;0.50;;
41683;SDS011;27369;52.030;4.586;2023-05-10T10:12:23;0.28;;;0.28;;
41683;SDS011;27369;52.030;4.586;2023-05-10T10:17:16;0.00;;;0.00;;
41683;SDS011;27369;52.030;4.586;2023-05-10T10:19:43;0.10;;;0.10;;
41683;SDS011;27369;52.030;4.586;2023-05-10T10:24:37;0.60;;;0.20;;
41683;SDS011;27369;52.030;4.586;2023-05-10T10:27:09;2.80;;;1.40;;
41683;SDS011;27369;52.030;4.586;2023-05-10T10:29:52;2.13;;;1.48;;
41683;SDS011;27369;52.030;4.586;2023-05-10T10:32:42;2.63;;;0.80;;
41683;SDS011;27369;52.030;4.586;2023-05-10T10:35:14;1.55;;;0.65;;
41683;SDS011;27369;52.030;4.586;2023-05-10T10:40:27;1.10;;;1.08;;
41683;SDS011;27369;52.030;4.586;2023-05-10T10:42:54;3.45;;;2.65;;
41683;SDS011;27369;52.030;4.586;2023-05-10T10:45:21;4.18;;;1.73;;
41683;SDS011;27369;52.030;4.586;2023-05-10T10:47:47;2.20;;;1.83;;
41683;SDS011;27369;52.030;4.586;2023-05-10T10:50:13;1.58;;;1.42;;
41683;SDS011;27369;52.030;4.586;2023-05-10T10:52:41;4.63;;;2.13;;
41683;SDS011;27369;52.030;4.586;2023-05-10T11:02:48;2.92;;;1.75;;
41683;SDS011;27369;52.030;4.586;2023-05-10T11:05:25;4.47;;;1.45;;
41683;SDS011;27369;52.030;4.586;2023-05-10T11:10:53;1.30;;;1.20;;
41683;SDS011;27369;52.030;4.586;2023-05-10T11:13:32;3.25;;;2.40;;
41683;SDS011;27369;52.030;4.586;2023-05-10T11:15:58;1.88;;;1.52;;
41683;SDS011;27369;52.030;4.586;2023-05-10T11:18:29;2.30;;;1.73;;
41683;SDS011;27369;52.030;4.586;2023-05-10T11:20:56;1.88;;;1.55;;
41683;SDS011;27369;52.030;4.586;2023-05-10T11:23:23;1.38;;;1.10;;
41683;SDS011;27369;52.030;4.586;2023-05-10T11:25:48;0.45;;;0.45;;
41683;SDS011;27369;52.030;4.586;2023-05-10T11:30:43;1.48;;;1.38;;
41683;SDS011;27369;52.030;4.586;2023-05-10T11:33:09;3.75;;;1.83;;
41683;SDS011;27369;52.030;4.586;2023-05-10T11:35:40;2.85;;;2.15;;
41683;SDS011;27369;52.030;4.586;2023-05-10T11:38:06;2.25;;;1.45;;
41683;SDS011;27369;52.030;4.586;2023-05-10T11:40:35;1.42;;;1.25;;
41683;SDS011;27369;52.030;4.586;2023-05-10T11:43:02;1.48;;;1.35;;
41683;SDS011;27369;52.030;4.586;2023-05-10T11:45:28;1.98;;;1.77;;
41683;SDS011;27369;52.030;4.586;2023-05-10T11:47:56;3.70;;;2.63;;
41683;SDS011;27369;52.030;4.586;2023-05-10T11:50:22;3.40;;;2.10;;
41683;SDS011;27369;52.030;4.586;2023-05-10T11:52:51;2.28;;;2.03;;
41683;SDS011;27369;52.030;4.586;2023-05-10T11:55:21;2.60;;;2.00;;
41683;SDS011;27369;52.030;4.586;2023-05-10T11:57:47;3.20;;;2.33;;
41683;SDS011;27369;52.030;4.586;2023-05-10T12:00:16;2.55;;;2.00;;
41683;SDS011;27369;52.030;4.586;2023-05-10T12:02:41;1.27;;;1.15;;
41683;SDS011;27369;52.030;4.586;2023-05-10T12:05:07;4.28;;;2.22;;
41683;SDS011;27369;52.030;4.586;2023-05-10T12:07:33;0.68;;;0.63;;
41683;SDS011;27369;52.030;4.586;2023-05-10T12:10:03;1.47;;;1.27;;
41683;SDS011;27369;52.030;4.586;2023-05-10T12:12:37;1.98;;;1.75;;
41683;SDS011;27369;52.030;4.586;2023-05-10T12:15:04;3.47;;;2.10;;
41683;SDS011;27369;52.030;4.586;2023-05-10T12:17:31;3.88;;;1.65;;
41683;SDS011;27369;52.030;4.586;2023-05-10T12:20:12;1.02;;;0.95;;
41683;SDS011;27369;52.030;4.586;2023-05-10T12:22:39;1.10;;;0.93;;
41683;SDS011;27369;52.030;4.586;2023-05-10T12:25:05;3.20;;;1.70;;
41683;SDS011;27369;52.030;4.586;2023-05-10T12:27:33;1.63;;;0.75;;
41683;SDS011;27369;52.030;4.586;2023-05-10T12:29:59;0.82;;;0.80;;
41683;SDS011;27369;52.030;4.586;2023-05-10T12:32:37;8.32;;;1.65;;
41683;SDS011;27369;52.030;4.586;2023-05-10T12:35:06;8.75;;;1.77;;
41683;SDS011;27369;52.030;4.586;2023-05-10T12:37:31;1.83;;;1.00;;
41683;SDS011;27369;52.030;4.586;2023-05-10T12:40:00;2.05;;;1.55;;
41683;SDS011;27369;52.030;4.586;2023-05-10T12:42:27;4.78;;;0.85;;
41683;SDS011;27369;52.030;4.586;2023-05-10T12:47:20;0.10;;;0.10;;
41683;SDS011;27369;52.030;4.586;2023-05-10T12:49:46;1.08;;;0.80;;
41683;SDS011;27369;52.030;4.586;2023-05-10T12:52:11;2.53;;;1.80;;
41683;SDS011;27369;52.030;4.586;2023-05-10T12:54:36;3.55;;;2.40;;
41683;SDS011;27369;52.030;4.586;2023-05-10T12:57:02;1.75;;;1.00;;
41683;SDS011;27369;52.030;4.586;2023-05-10T12:59:27;0.93;;;0.93;;
41683;SDS011;27369;52.030;4.586;2023-05-10T13:01:52;6.82;;;2.10;;
41683;SDS011;27369;52.030;4.586;2023-05-10T13:04:18;2.90;;;2.00;;
41683;SDS011;27369;52.030;4.586;2023-05-10T13:06:43;3.30;;;2.33;;
41683;SDS011;27369;52.030;4.586;2023-05-10T13:09:09;5.63;;;2.25;;
41683;SDS011;27369;52.030;4.586;2023-05-10T13:11:35;2.13;;;1.38;;
41683;SDS011;27369;52.030;4.586;2023-05-10T13:14:00;1.02;;;0.93;;
41683;SDS011;27369;52.030;4.586;2023-05-10T13:16:26;3.58;;;2.15;;
41683;SDS011;27369;52.030;4.586;2023-05-10T13:18:51;3.55;;;1.98;;
41683;SDS011;27369;52.030;4.586;2023-05-10T13:21:17;1.85;;;1.00;;
41683;SDS011;27369;52.030;4.586;2023-05-10T13:23:42;2.78;;;1.48;;
41683;SDS011;27369;52.030;4.586;2023-05-10T13:26:07;2.38;;;1.65;;
41683;SDS011;27369;52.030;4.586;2023-05-10T13:28:33;2.92;;;1.20;;
41683;SDS011;27369;52.030;4.586;2023-05-10T13:30:58;1.48;;;1.20;;
41683;SDS011;27369;52.030;4.586;2023-05-10T13:33:24;3.63;;;1.50;;
41683;SDS011;27369;52.030;4.586;2023-05-10T13:35:50;1.77;;;1.50;;
41683;SDS011;27369;52.030;4.586;2023-05-10T13:38:15;1.70;;;1.25;;
41683;SDS011;27369;52.030;4.586;2023-05-10T13:40:41;2.45;;;0.75;;
41683;SDS011;27369;52.030;4.586;2023-05-10T13:43:06;1.98;;;0.93;;
41683;SDS011;27369;52.030;4.586;2023-05-10T13:45:31;0.73;;;0.65;;
41683;SDS011;27369;52.030;4.586;2023-05-10T13:47:57;1.65;;;1.30;;
41683;SDS011;27369;52.030;4.586;2023-05-10T13:50:22;2.72;;;1.48;;
41683;SDS011;27369;52.030;4.586;2023-05-10T13:52:48;1.50;;;1.25;;
41683;SDS011;27369;52.030;4.586;2023-05-10T13:55:13;1.83;;;1.65;;
41683;SDS011;27369;52.030;4.586;2023-05-10T13:57:39;3.60;;;0.80;;
41683;SDS011;27369;52.030;4.586;2023-05-10T14:00:04;3.47;;;2.00;;
41683;SDS011;27369;52.030;4.586;2023-05-10T14:02:30;1.58;;;1.02;;
41683;SDS011;27369;52.030;4.586;2023-05-10T14:04:56;5.55;;;1.85;;
41683;SDS011;27369;52.030;4.586;2023-05-10T14:07:21;2.08;;;1.23;;
41683;SDS011;27369;52.030;4.586;2023-05-10T14:09:46;2.22;;;1.70;;
41683;SDS011;27369;52.030;4.586;2023-05-10T14:12:12;1.75;;;1.25;;
41683;SDS011;27369;52.030;4.586;2023-05-10T14:14:39;1.92;;;0.93;;
41683;SDS011;27369;52.030;4.586;2023-05-10T14:17:04;0.50;;;0.47;;
41683;SDS011;27369;52.030;4.586;2023-05-10T14:19:30;3.25;;;0.75;;
41683;SDS011;27369;52.030;4.586;2023-05-10T14:21:57;2.22;;;1.73;;
41683;SDS011;27369;52.030;4.586;2023-05-10T14:24:22;1.40;;;0.73;;
41683;SDS011;27369;52.030;4.586;2023-05-10T14:26:48;1.02;;;0.45;;
41683;SDS011;27369;52.030;4.586;2023-05-10T14:29:13;1.65;;;1.38;;
41683;SDS011;27369;52.030;4.586;2023-05-10T14:31:39;2.50;;;0.63;;
41683;SDS011;27369;52.030;4.586;2023-05-10T14:36:30;0.33;;;0.33;;
41683;SDS011;27369;52.030;4.586;2023-05-10T14:38:56;0.70;;;0.70;;
41683;SDS011;27369;52.030;4.586;2023-05-10T14:41:22;1.02;;;0.98;;
41683;SDS011;27369;52.030;4.586;2023-05-10T14:43:47;0.93;;;0.80;;
41683;SDS011;27369;52.030;4.586;2023-05-10T14:46:13;1.00;;;0.75;;
41683;SDS011;27369;52.030;4.586;2023-05-10T14:48:38;0.70;;;0.70;;
41683;SDS011;27369;52.030;4.586;2023-05-10T14:51:04;0.25;;;0.17;;
41683;SDS011;27369;52.030;4.586;2023-05-10T14:53:29;1.52;;;1.42;;
41683;SDS011;27369;52.030;4.586;2023-05-10T14:55:55;0.68;;;0.60;;
41683;SDS011;27369;52.030;4.586;2023-05-10T14:58:20;1.27;;;0.50;;
41683;SDS011;27369;52.030;4.586;2023-05-10T15:00:46;1.50;;;1.40;;
41683;SDS011;27369;52.030;4.586;2023-05-10T15:03:11;0.20;;;0.15;;
41683;SDS011;27369;52.030;4.586;2023-05-10T15:05:37;0.00;;;0.00;;
41683;SDS011;27369;52.030;4.586;2023-05-10T15:08:02;0.40;;;0.40;;
41683;SDS011;27369;52.030;4.586;2023-05-10T15:10:29;0.43;;;0.43;;
41683;SDS011;27369;52.030;4.586;2023-05-10T15:12:55;1.20;;;0.73;;
41683;SDS011;27369;52.030;4.586;2023-05-10T15:15:20;2.20;;;1.63;;
41683;SDS011;27369;52.030;4.586;2023-05-10T15:17:46;0.52;;;0.50;;
41683;SDS011;27369;52.030;4.586;2023-05-10T15:20:12;0.75;;;0.70;;
41683;SDS011;27369;52.030;4.586;2023-05-10T15:22:37;1.13;;;0.98;;
41683;SDS011;27369;52.030;4.586;2023-05-10T15:25:03;2.60;;;1.35;;
41683;SDS011;27369;52.030;4.586;2023-05-10T15:27:29;0.80;;;0.73;;
41683;SDS011;27369;52.030;4.586;2023-05-10T15:29:54;1.23;;;0.68;;
41683;SDS011;27369;52.030;4.586;2023-05-10T15:32:20;0.90;;;0.85;;
41683;SDS011;27369;52.030;4.586;2023-05-10T15:34:45;1.02;;;0.77;;
41683;SDS011;27369;52.030;4.586;2023-05-10T15:37:11;2.25;;;1.10;;
41683;SDS011;27369;52.030;4.586;2023-05-10T15:39:36;1.08;;;0.38;;
41683;SDS011;27369;52.030;4.586;2023-05-10T15:42:01;0.80;;;0.80;;
41683;SDS011;27369;52.030;4.586;2023-05-10T15:44:28;1.08;;;1.08;;